Areias, Brazil
Current Conditions -  °F | °C
As of 7:00 PM on Thursday 27 Nov 2014 (Local Time) from SBGW Reporting Station
Rain Showers Rain Showers  
Wind Chill: 77°   Ceiling: 2000
Heat Index: 79°   Visibility: 5mi
Dew Point: 64°   Wind: 3mph
Humidity: 65%   Direction: 120°ESE
Pressure: 29.91"   Gusts: NA
Location:  22.58°S, 44.7°W
Report Text: SBGW 272100Z 12003KT 8000 VCSH BKN020 FEW025TCU BKN080 25/18 Q1013
Loading
Personal Weather Stations






























Interactive Weather Map New forecast layout! Learn more

10-Day Weather Forecast

Advertisements
Track Severe Weather on mobile